createdAt,value
2022-11-07T00:01:45.258Z,8.30
2022-11-07T00:04:12.426Z,8.30
2022-11-07T00:06:39.734Z,8.30
2022-11-07T00:09:07.366Z,8.30
2022-11-07T00:11:34.544Z,8.20
2022-11-07T00:14:01.716Z,8.20
2022-11-07T00:16:29.478Z,8.10
2022-11-07T00:18:56.863Z,8.10
2022-11-07T00:21:24.051Z,8.10
2022-11-07T00:23:51.196Z,8.00
2022-11-07T00:26:18.413Z,8.00
2022-11-07T00:28:46.138Z,8.00
2022-11-07T00:31:15.089Z,7.90
2022-11-07T00:33:43.966Z,7.90
2022-11-07T00:36:20.557Z,7.80
2022-11-07T00:38:48.064Z,7.80
2022-11-07T00:41:15.572Z,7.80
2022-11-07T00:43:42.818Z,7.70
2022-11-07T00:46:11.854Z,7.70
2022-11-07T00:48:39.340Z,7.70
2022-11-07T00:51:12.653Z,7.70
2022-11-07T00:53:40.351Z,7.70
2022-11-07T00:56:10.243Z,7.70
2022-11-07T00:58:37.871Z,7.70
2022-11-07T01:01:12.779Z,7.80
2022-11-07T01:03:58.388Z,7.90
2022-11-07T01:06:27.920Z,7.90
2022-11-07T01:08:56.703Z,8.00
2022-11-07T01:11:26.246Z,7.90
2022-11-07T01:13:58.253Z,7.90
2022-11-07T01:16:26.494Z,7.90
2022-11-07T01:18:54.368Z,8.00
2022-11-07T01:21:21.865Z,8.00
2022-11-07T01:23:49.240Z,8.00
2022-11-07T01:26:17.323Z,8.00
2022-11-07T01:28:44.517Z,8.00
2022-11-07T01:31:14.726Z,8.00
2022-11-07T01:33:42.592Z,8.00
2022-11-07T01:36:13.435Z,7.90
2022-11-07T01:38:43.095Z,7.90
2022-11-07T01:41:21.476Z,7.90
2022-11-07T01:44:06.835Z,8.00
2022-11-07T01:46:45.552Z,8.00
2022-11-07T01:49:27.898Z,7.90
2022-11-07T01:52:15.728Z,7.90
2022-11-07T01:55:09.536Z,7.90
2022-11-07T01:57:59.818Z,7.90
2022-11-07T02:00:28.087Z,7.90
2022-11-07T02:03:01.115Z,7.90
2022-11-07T02:05:51.573Z,7.90
2022-11-07T02:08:19.605Z,7.90
2022-11-07T02:10:46.990Z,7.90
2022-11-07T02:13:22.319Z,7.90
2022-11-07T02:15:49.682Z,7.90
2022-11-07T02:18:17.014Z,7.90
2022-11-07T02:20:45.778Z,7.90
2022-11-07T02:23:20.516Z,7.90
2022-11-07T02:25:48.173Z,7.90
2022-11-07T02:28:17.014Z,7.90
2022-11-07T02:30:44.109Z,7.90
2022-11-07T02:33:22.652Z,7.90
2022-11-07T02:35:52.663Z,7.90
2022-11-07T02:38:32.243Z,7.80
2022-11-07T02:41:05.472Z,7.90
2022-11-07T02:43:35.009Z,7.90
2022-11-07T02:46:05.984Z,7.80
2022-11-07T02:48:41.452Z,7.80
2022-11-07T02:51:08.677Z,7.80
2022-11-07T02:53:35.831Z,7.80
2022-11-07T02:56:03.142Z,7.80
2022-11-07T02:58:30.380Z,7.70
2022-11-07T03:01:03.120Z,7.70
2022-11-07T03:03:30.854Z,7.60
2022-11-07T03:05:58.027Z,7.60
2022-11-07T03:08:25.234Z,7.60
2022-11-07T03:10:52.492Z,7.60
2022-11-07T03:13:19.630Z,7.60
2022-11-07T03:15:46.884Z,7.60
2022-11-07T03:18:14.077Z,7.50
2022-11-07T03:20:41.212Z,7.50
2022-11-07T03:23:08.894Z,7.50
2022-11-07T03:25:35.967Z,7.50
2022-11-07T03:28:03.214Z,7.50
2022-11-07T03:30:30.586Z,7.50
2022-11-07T03:32:58.057Z,7.50
2022-11-07T03:35:25.496Z,7.60
2022-11-07T03:37:52.839Z,7.60
2022-11-07T03:40:20.044Z,7.60
2022-11-07T03:42:47.308Z,7.60
2022-11-07T03:45:16.264Z,7.60
2022-11-07T03:47:44.918Z,7.50
2022-11-07T03:50:21.162Z,7.50
2022-11-07T03:52:49.293Z,7.50
2022-11-07T03:55:18.304Z,7.60
2022-11-07T03:57:46.516Z,7.60
2022-11-07T04:00:15.162Z,7.60
2022-11-07T04:02:43.361Z,7.60
2022-11-07T04:05:11.496Z,7.60
2022-11-07T04:07:38.772Z,7.60
2022-11-07T04:10:06.273Z,7.60
2022-11-07T04:12:51.759Z,7.60
2022-11-07T04:15:37.647Z,7.60
2022-11-07T04:18:04.953Z,7.50
2022-11-07T04:20:32.051Z,7.50
2022-11-07T04:22:59.268Z,7.50
2022-11-07T04:25:45.143Z,7.50
2022-11-07T04:28:12.764Z,7.50
2022-11-07T04:30:39.813Z,7.50
2022-11-07T04:33:06.966Z,7.50
2022-11-07T04:35:34.390Z,7.50
2022-11-07T04:38:01.879Z,7.50
2022-11-07T04:40:30.128Z,7.50
2022-11-07T04:42:57.840Z,7.50
2022-11-07T04:45:25.447Z,7.50
2022-11-07T04:47:52.732Z,7.60
2022-11-07T04:50:21.577Z,7.60
2022-11-07T04:52:48.676Z,7.50
2022-11-07T04:55:24.868Z,7.60
2022-11-07T04:57:52.391Z,7.60
2022-11-07T05:00:20.616Z,7.60
2022-11-07T05:02:48.409Z,7.60
2022-11-07T05:05:16.678Z,7.60
2022-11-07T05:07:44.242Z,7.60
2022-11-07T05:10:32.694Z,7.60
2022-11-07T05:13:00.048Z,7.70
2022-11-07T05:15:27.117Z,7.70
2022-11-07T05:17:54.227Z,7.70
2022-11-07T05:20:51.227Z,7.80
2022-11-07T05:23:19.168Z,7.80
2022-11-07T05:25:49.881Z,7.90
2022-11-07T05:28:35.212Z,7.90
2022-11-07T05:31:06.162Z,7.90
2022-11-07T05:33:33.450Z,7.90
2022-11-07T05:36:18.370Z,7.90
2022-11-07T05:38:47.751Z,7.90
2022-11-07T05:41:16.376Z,7.90
2022-11-07T05:43:43.931Z,7.90
2022-11-07T05:46:11.478Z,7.90
2022-11-07T05:48:39.256Z,7.90
2022-11-07T05:51:07.811Z,7.90
2022-11-07T05:53:35.350Z,7.90
2022-11-07T05:56:02.698Z,7.90
2022-11-07T05:58:29.860Z,7.90
2022-11-07T06:01:04.859Z,7.80
2022-11-07T06:03:32.200Z,7.80
2022-11-07T06:05:59.692Z,7.80
2022-11-07T06:08:26.800Z,7.80
2022-11-07T06:10:53.911Z,7.80
2022-11-07T06:13:21.086Z,7.70
2022-11-07T06:15:48.610Z,7.70
2022-11-07T06:18:21.106Z,7.60
2022-11-07T06:20:48.290Z,7.60
2022-11-07T06:23:15.967Z,7.60
2022-11-07T06:25:43.405Z,7.60
2022-11-07T06:28:12.487Z,7.60
2022-11-07T06:30:40.003Z,7.60
2022-11-07T06:33:10.464Z,7.50
2022-11-07T06:35:38.041Z,7.50
2022-11-07T06:38:07.515Z,7.50
2022-11-07T06:40:34.881Z,7.50
2022-11-07T06:43:15.931Z,7.50
2022-11-07T06:45:45.129Z,7.50
2022-11-07T06:48:12.655Z,7.50
2022-11-07T06:50:40.008Z,7.50
2022-11-07T06:53:09.805Z,7.50
2022-11-07T06:55:38.069Z,7.50
2022-11-07T06:58:05.622Z,7.50
2022-11-07T07:00:34.761Z,7.50
2022-11-07T07:03:02.419Z,7.50
2022-11-07T07:05:29.636Z,7.50
2022-11-07T07:07:56.810Z,7.50
2022-11-07T07:10:25.377Z,7.50
2022-11-07T07:12:56.882Z,7.50
2022-11-07T07:15:24.142Z,7.50
2022-11-07T07:17:51.360Z,7.50
2022-11-07T07:20:18.630Z,7.40
2022-11-07T07:22:46.742Z,7.40
2022-11-07T07:25:16.463Z,7.40
2022-11-07T07:27:43.885Z,7.30
2022-11-07T07:30:37.338Z,7.30
2022-11-07T07:33:04.727Z,7.30
2022-11-07T07:35:32.678Z,7.30
2022-11-07T07:38:00.032Z,7.30
2022-11-07T07:40:27.294Z,7.30
2022-11-07T07:42:54.453Z,7.20
2022-11-07T07:45:21.777Z,7.20
2022-11-07T07:47:49.115Z,7.20
2022-11-07T07:50:16.366Z,7.20
2022-11-07T07:52:43.948Z,7.20
2022-11-07T07:55:11.674Z,7.20
2022-11-07T07:57:42.326Z,7.20
2022-11-07T08:00:11.512Z,7.30
2022-11-07T08:02:44.242Z,7.30
2022-11-07T08:05:15.773Z,7.40
2022-11-07T08:07:50.835Z,7.50
2022-11-07T08:13:06.641Z,7.60
2022-11-07T08:15:33.912Z,7.60
2022-11-07T08:18:02.698Z,7.60
2022-11-07T08:20:29.967Z,7.70
2022-11-07T08:23:06.914Z,7.70
2022-11-07T08:25:37.231Z,7.70
2022-11-07T08:28:04.943Z,7.80
2022-11-07T08:30:32.161Z,7.90
2022-11-07T08:33:00.659Z,7.90
2022-11-07T08:35:27.831Z,8.00
2022-11-07T08:37:55.095Z,8.00
2022-11-07T08:40:22.829Z,8.10
2022-11-07T08:42:50.040Z,8.20
2022-11-07T08:45:17.278Z,8.20
2022-11-07T08:47:44.370Z,8.20
2022-11-07T08:50:11.820Z,8.20
2022-11-07T08:52:39.126Z,8.30
2022-11-07T08:55:07.093Z,8.30
2022-11-07T08:57:34.189Z,8.30
2022-11-07T09:00:01.466Z,8.30
2022-11-07T09:03:08.433Z,8.30
2022-11-07T09:05:16.139Z,8.30
2022-11-07T09:07:45.891Z,8.30
2022-11-07T09:10:13.286Z,8.40
2022-11-07T09:12:48.441Z,8.40
2022-11-07T09:15:16.406Z,8.50
2022-11-07T09:17:44.073Z,8.50
2022-11-07T09:20:11.325Z,8.60
2022-11-07T09:22:41.910Z,8.60
2022-11-07T09:25:10.124Z,8.70
2022-11-07T09:27:37.314Z,8.80
2022-11-07T09:30:06.008Z,8.90
2022-11-07T09:32:48.270Z,9.00
2022-11-07T09:35:15.528Z,9.10
2022-11-07T09:37:42.913Z,9.20
2022-11-07T09:40:50.361Z,9.30
2022-11-07T09:43:43.136Z,9.30
2022-11-07T09:46:33.300Z,9.40
2022-11-07T09:49:18.758Z,9.40
2022-11-07T09:52:04.133Z,9.40
2022-11-07T09:54:37.988Z,9.40
2022-11-07T09:57:05.465Z,9.50
2022-11-07T09:59:40.919Z,9.50
2022-11-07T10:02:21.395Z,9.50
2022-11-07T10:04:56.896Z,9.50
2022-11-07T10:08:21.955Z,9.50
2022-11-07T10:10:59.420Z,9.50
2022-11-07T10:13:29.600Z,9.60
2022-11-07T10:16:11.798Z,9.60
2022-11-07T10:18:50.879Z,9.60
2022-11-07T10:21:38.537Z,9.60
2022-11-07T10:24:23.251Z,9.60
2022-11-07T10:26:50.439Z,9.60
2022-11-07T10:29:23.723Z,9.70
2022-11-07T10:32:03.981Z,9.70
2022-11-07T10:34:38.451Z,9.70
2022-11-07T10:37:05.702Z,9.70
2022-11-07T10:39:33.177Z,9.70
2022-11-07T10:42:30.679Z,9.70
2022-11-07T10:44:59.559Z,9.70
2022-11-07T10:47:28.258Z,9.70
2022-11-07T10:49:59.732Z,9.70
2022-11-07T10:52:28.734Z,9.70
2022-11-07T10:55:14.883Z,9.70
2022-11-07T10:57:43.998Z,9.70
2022-11-07T11:00:26.411Z,9.70
2022-11-07T11:02:56.314Z,9.70
2022-11-07T11:05:34.359Z,9.70
2022-11-07T11:08:20.752Z,9.80
2022-11-07T11:10:49.114Z,9.80
2022-11-07T11:13:26.118Z,9.80
2022-11-07T11:15:53.523Z,9.80
2022-11-07T11:18:20.980Z,9.80
2022-11-07T11:21:06.122Z,9.90
2022-11-07T11:23:37.461Z,9.90
2022-11-07T11:26:14.392Z,9.90
2022-11-07T11:28:45.987Z,9.80
2022-11-07T11:31:29.788Z,9.90
2022-11-07T11:34:45.068Z,9.80
2022-11-07T11:37:18.977Z,9.80
2022-11-07T11:39:59.988Z,9.80
2022-11-07T11:42:31.024Z,9.80
2022-11-07T11:45:04.214Z,9.80
2022-11-07T11:47:42.811Z,9.90
2022-11-07T11:50:25.662Z,9.90
2022-11-07T11:52:54.097Z,9.90
2022-11-07T11:55:28.751Z,9.90
2022-11-07T11:58:26.555Z,10.00
2022-11-07T12:01:19.596Z,10.00
2022-11-07T12:04:02.489Z,10.10
2022-11-07T12:06:40.314Z,10.10
2022-11-07T12:09:41.752Z,10.10
2022-11-07T12:12:46.187Z,10.10
2022-11-07T12:15:19.295Z,10.10
2022-11-07T12:17:55.398Z,10.20
2022-11-07T12:20:58.300Z,10.20
2022-11-07T12:23:45.477Z,10.20
2022-11-07T12:26:29.393Z,10.30
2022-11-07T12:29:04.293Z,10.30
2022-11-07T12:32:07.905Z,10.40
2022-11-07T12:35:07.237Z,10.40
2022-11-07T12:37:56.713Z,10.40
2022-11-07T12:40:58.158Z,10.40
2022-11-07T12:44:00.530Z,10.40
2022-11-07T12:46:33.573Z,10.40
2022-11-07T12:49:24.937Z,10.50
2022-11-07T12:52:14.981Z,10.50
2022-11-07T12:54:45.233Z,10.50
2022-11-07T12:57:20.407Z,10.50
2022-11-07T13:00:14.984Z,10.50
2022-11-07T13:03:17.878Z,10.60
2022-11-07T13:06:00.076Z,10.60
2022-11-07T13:09:06.590Z,10.60
2022-11-07T13:11:53.138Z,10.60
2022-11-07T13:14:24.402Z,10.70
2022-11-07T13:16:58.620Z,10.70
2022-11-07T13:19:32.332Z,10.70
2022-11-07T13:22:21.876Z,10.80
2022-11-07T13:24:54.052Z,10.70
2022-11-07T13:28:01.374Z,10.80
2022-11-07T13:30:35.393Z,10.80
2022-11-07T13:33:52.775Z,10.80
2022-11-07T13:36:27.725Z,10.80
2022-11-07T13:38:59.649Z,10.80
2022-11-07T13:41:28.761Z,10.80
2022-11-07T13:44:08.120Z,10.80
2022-11-07T13:46:42.845Z,10.90
2022-11-07T13:49:37.742Z,10.90
2022-11-07T13:52:17.739Z,10.90
2022-11-07T13:55:04.358Z,10.90
2022-11-07T13:58:06.538Z,10.90
2022-11-07T14:00:34.909Z,10.90
2022-11-07T14:03:02.782Z,11.00
2022-11-07T14:05:36.438Z,11.00
2022-11-07T14:08:40.669Z,11.00
2022-11-07T14:11:20.091Z,11.10
2022-11-07T14:13:50.427Z,11.10
2022-11-07T14:16:23.390Z,11.10
2022-11-07T14:18:56.305Z,11.20
2022-11-07T14:21:27.825Z,11.20
2022-11-07T14:23:55.138Z,11.20
2022-11-07T14:26:23.802Z,11.20
2022-11-07T14:28:51.634Z,11.20
2022-11-07T14:31:34.605Z,11.20
2022-11-07T14:34:04.471Z,11.20
2022-11-07T14:36:32.040Z,11.20
2022-11-07T14:39:05.023Z,11.20
2022-11-07T14:41:35.668Z,11.30
2022-11-07T14:44:04.403Z,11.30
2022-11-07T14:46:31.808Z,11.30
2022-11-07T14:48:59.822Z,11.30
2022-11-07T14:51:29.396Z,11.40
2022-11-07T14:54:11.301Z,11.40
2022-11-07T14:56:43.313Z,11.40
2022-11-07T14:59:15.867Z,11.40
2022-11-07T15:01:59.644Z,11.40
2022-11-07T15:04:31.570Z,11.40
2022-11-07T15:07:18.466Z,11.50
2022-11-07T15:09:45.902Z,11.50
2022-11-07T15:12:19.453Z,11.50
2022-11-07T15:15:01.391Z,11.40
2022-11-07T15:17:28.983Z,11.40
2022-11-07T15:20:03.214Z,11.40
2022-11-07T15:22:38.804Z,11.50
2022-11-07T15:25:26.757Z,11.50
2022-11-07T15:27:54.320Z,11.50
2022-11-07T15:30:58.247Z,11.50
2022-11-07T15:33:26.205Z,11.50
2022-11-07T15:36:00.805Z,11.60
2022-11-07T15:38:29.897Z,11.60
2022-11-07T15:40:57.118Z,11.60
2022-11-07T15:43:24.387Z,11.60
2022-11-07T15:45:53.463Z,11.60
2022-11-07T15:48:23.595Z,11.60
2022-11-07T15:50:51.545Z,11.60
2022-11-07T15:53:24.559Z,11.60
2022-11-07T15:55:53.967Z,11.60
2022-11-07T15:58:26.600Z,11.70
2022-11-07T16:00:54.491Z,11.70
2022-11-07T16:03:24.343Z,11.70
2022-11-07T16:05:53.310Z,11.70
2022-11-07T16:08:22.760Z,11.80
2022-11-07T16:10:55.581Z,11.80
2022-11-07T16:13:23.083Z,11.80
2022-11-07T16:16:03.659Z,11.80
2022-11-07T16:18:42.255Z,11.80
2022-11-07T16:21:09.626Z,11.80
2022-11-07T16:23:37.384Z,11.80
2022-11-07T16:26:04.882Z,11.80
2022-11-07T16:28:35.718Z,11.80
2022-11-07T16:31:04.010Z,11.80
2022-11-07T16:33:31.223Z,11.80
2022-11-07T16:36:01.351Z,11.80
2022-11-07T16:38:35.047Z,11.80
2022-11-07T16:41:03.503Z,11.80
2022-11-07T16:43:35.134Z,11.70
2022-11-07T16:46:02.721Z,11.80
2022-11-07T16:48:30.594Z,11.80
2022-11-07T16:50:58.506Z,11.70
2022-11-07T16:53:26.146Z,11.70
2022-11-07T16:56:01.923Z,11.70
2022-11-07T17:02:55.314Z,11.70
2022-11-07T17:05:22.723Z,11.70
2022-11-07T17:07:53.294Z,11.70
2022-11-07T17:10:20.614Z,11.70
2022-11-07T17:12:47.958Z,11.80
2022-11-07T17:15:15.411Z,11.80
2022-11-07T17:17:42.565Z,11.80
2022-11-07T17:20:49.389Z,11.80
2022-11-07T17:23:09.198Z,11.80
2022-11-07T17:25:37.658Z,11.80
2022-11-07T17:28:05.500Z,11.70
2022-11-07T17:30:33.744Z,11.80
2022-11-07T17:33:01.006Z,11.80
2022-11-07T17:35:32.701Z,11.80
2022-11-07T17:38:00.806Z,11.80
2022-11-07T17:40:30.661Z,11.80
2022-11-07T17:42:58.975Z,11.80
2022-11-07T17:45:26.616Z,11.90
2022-11-07T17:47:54.233Z,11.80
2022-11-07T17:50:23.718Z,11.90
2022-11-07T17:52:52.557Z,11.80
2022-11-07T17:55:25.633Z,11.80
2022-11-07T17:57:53.017Z,11.80
2022-11-07T18:00:49.683Z,11.80
2022-11-07T18:03:16.933Z,11.80
2022-11-07T18:05:44.075Z,11.80
2022-11-07T18:08:19.907Z,11.80
2022-11-07T18:11:02.763Z,11.80
2022-11-07T18:13:29.971Z,11.80
2022-11-07T18:15:57.695Z,11.80
2022-11-07T18:18:25.109Z,11.80
2022-11-07T18:20:52.254Z,11.70
2022-11-07T18:23:19.397Z,11.70
2022-11-07T18:25:47.004Z,11.70
2022-11-07T18:28:14.730Z,11.80
2022-11-07T18:30:42.466Z,11.70
2022-11-07T18:33:10.014Z,11.70
2022-11-07T18:35:37.358Z,11.70
2022-11-07T18:38:04.868Z,11.80
2022-11-07T18:40:32.292Z,11.70
2022-11-07T18:42:59.574Z,11.70
2022-11-07T18:45:26.840Z,11.80
2022-11-07T18:47:54.112Z,11.80
2022-11-07T18:50:21.271Z,11.80
2022-11-07T18:52:49.046Z,11.80
2022-11-07T18:55:16.423Z,11.80
2022-11-07T18:57:43.673Z,11.80
2022-11-07T19:00:13.584Z,11.90
2022-11-07T19:02:41.263Z,11.90
2022-11-07T19:05:08.483Z,11.80
2022-11-07T19:07:35.665Z,11.80
2022-11-07T19:10:03.625Z,12.00
2022-11-07T19:12:31.053Z,11.90
2022-11-07T19:14:59.072Z,11.90
2022-11-07T19:17:26.857Z,11.90
2022-11-07T19:19:54.338Z,11.90
2022-11-07T19:22:22.277Z,11.90
2022-11-07T19:24:49.550Z,11.90
2022-11-07T19:27:17.146Z,11.90
2022-11-07T19:29:44.399Z,11.90
2022-11-07T19:32:11.956Z,11.90
2022-11-07T19:34:41.541Z,11.90
2022-11-07T19:37:09.026Z,11.90
2022-11-07T19:39:39.170Z,11.90
2022-11-07T19:42:06.619Z,11.90
2022-11-07T19:44:36.435Z,11.90
2022-11-07T19:47:05.206Z,11.90
2022-11-07T19:49:32.380Z,11.90
2022-11-07T19:51:59.752Z,11.80
2022-11-07T19:54:26.943Z,11.80
2022-11-07T19:56:57.371Z,11.80
2022-11-07T19:59:25.110Z,11.80
2022-11-07T20:02:17.766Z,11.80
2022-11-07T20:04:41.361Z,11.80
2022-11-07T20:07:09.134Z,11.70
2022-11-07T20:09:36.540Z,11.70
2022-11-07T20:12:05.005Z,11.70
2022-11-07T20:14:32.763Z,11.70
2022-11-07T20:17:00.555Z,11.70
2022-11-07T20:19:30.092Z,11.70
2022-11-07T20:21:58.684Z,11.70
2022-11-07T20:24:26.382Z,11.70
2022-11-07T20:26:53.628Z,11.70
2022-11-07T20:29:23.035Z,11.70
2022-11-07T20:31:50.572Z,11.60
2022-11-07T20:34:20.388Z,11.70
2022-11-07T20:36:49.184Z,11.70
2022-11-07T20:39:16.534Z,11.60
2022-11-07T20:41:44.025Z,11.70
2022-11-07T20:44:14.138Z,11.70
2022-11-07T20:46:44.150Z,11.70
2022-11-07T20:49:14.794Z,11.70
2022-11-07T20:51:43.095Z,11.70
2022-11-07T20:54:15.571Z,11.70
2022-11-07T20:56:43.771Z,11.80
2022-11-07T20:59:10.946Z,11.80
2022-11-07T21:01:38.397Z,11.80
2022-11-07T21:04:12.534Z,11.80
2022-11-07T21:06:39.901Z,11.80
2022-11-07T21:09:07.999Z,11.80
2022-11-07T21:11:35.501Z,11.90
2022-11-07T21:14:02.953Z,11.90
2022-11-07T21:16:30.650Z,11.90
2022-11-07T21:18:58.015Z,11.90
2022-11-07T21:21:27.681Z,11.90
2022-11-07T21:23:57.273Z,11.90
2022-11-07T21:26:31.933Z,11.90
2022-11-07T21:28:59.973Z,11.90
2022-11-07T21:31:29.852Z,11.90
2022-11-07T21:33:57.993Z,11.90
2022-11-07T21:36:30.143Z,11.90
2022-11-07T21:38:59.332Z,11.90
2022-11-07T21:41:27.452Z,11.90
2022-11-07T21:43:54.665Z,11.90
2022-11-07T21:46:31.477Z,11.80
2022-11-07T21:48:59.364Z,11.80
2022-11-07T21:51:31.592Z,11.80
2022-11-07T21:54:00.275Z,11.80
2022-11-07T21:56:33.431Z,11.80
2022-11-07T21:59:28.753Z,11.80
2022-11-07T22:01:56.494Z,11.80
2022-11-07T22:04:24.206Z,11.80
2022-11-07T22:06:52.230Z,11.80
2022-11-07T22:09:21.402Z,11.80
2022-11-07T22:11:50.347Z,11.80
2022-11-07T22:14:19.839Z,11.70
2022-11-07T22:16:48.387Z,11.70
2022-11-07T22:19:17.192Z,11.70
2022-11-07T22:21:44.790Z,11.70
2022-11-07T22:24:12.278Z,11.70
2022-11-07T22:26:39.742Z,11.80
2022-11-07T22:29:07.023Z,11.80
2022-11-07T22:31:34.215Z,11.70
2022-11-07T22:34:01.679Z,11.70
2022-11-07T22:36:29.791Z,11.70
2022-11-07T22:38:58.258Z,11.70
2022-11-07T22:41:27.130Z,11.70
2022-11-07T22:43:54.881Z,11.70
2022-11-07T22:46:24.849Z,11.70
2022-11-07T22:48:53.510Z,11.70
2022-11-07T22:51:30.784Z,11.70
2022-11-07T22:54:03.540Z,11.70
2022-11-07T22:56:30.886Z,11.70
2022-11-07T22:58:58.662Z,11.70
2022-11-07T23:01:47.955Z,11.70
2022-11-07T23:04:18.174Z,11.70
2022-11-07T23:06:45.728Z,11.70
2022-11-07T23:09:15.147Z,11.70
2022-11-07T23:11:47.890Z,11.70
2022-11-07T23:14:20.781Z,11.80
2022-11-07T23:16:53.055Z,11.80
2022-11-07T23:19:23.262Z,11.80
2022-11-07T23:21:52.435Z,11.80
2022-11-07T23:24:20.726Z,11.80
2022-11-07T23:26:48.775Z,11.70
2022-11-07T23:29:21.768Z,11.70
2022-11-07T23:31:51.373Z,11.80
2022-11-07T23:34:20.406Z,11.70
2022-11-07T23:36:51.259Z,11.80
2022-11-07T23:39:20.752Z,11.70
2022-11-07T23:41:48.157Z,11.70
2022-11-07T23:44:16.080Z,11.80
2022-11-07T23:47:02.153Z,11.80
2022-11-07T23:49:35.590Z,11.70
2022-11-07T23:52:02.986Z,11.80
2022-11-07T23:54:48.624Z,11.70
2022-11-07T23:57:16.007Z,11.70
